sensor_id;sensor_type;location;lat;lon;timestamp;P1;durP1;ratioP1;P2;durP2;ratioP2
7051;SDS011;3567;52.444;13.556;2024-02-16T00:01:16;14.15;;;12.10;;
7051;SDS011;3567;52.444;13.556;2024-02-16T00:03:42;19.85;;;13.13;;
7051;SDS011;3567;52.444;13.556;2024-02-16T00:06:07;19.00;;;13.05;;
7051;SDS011;3567;52.444;13.556;2024-02-16T00:08:32;15.30;;;12.13;;
7051;SDS011;3567;52.444;13.556;2024-02-16T00:10:59;15.65;;;12.00;;
7051;SDS011;3567;52.444;13.556;2024-02-16T00:13:25;17.98;;;13.30;;
7051;SDS011;3567;52.444;13.556;2024-02-16T00:15:50;19.88;;;14.65;;
7051;SDS011;3567;52.444;13.556;2024-02-16T00:18:16;18.33;;;14.18;;
7051;SDS011;3567;52.444;13.556;2024-02-16T00:20:41;19.48;;;14.02;;
7051;SDS011;3567;52.444;13.556;2024-02-16T00:23:06;17.02;;;14.10;;
7051;SDS011;3567;52.444;13.556;2024-02-16T00:25:32;18.33;;;14.38;;
7051;SDS011;3567;52.444;13.556;2024-02-16T00:27:58;20.58;;;15.15;;
7051;SDS011;3567;52.444;13.556;2024-02-16T00:30:24;21.20;;;14.77;;
7051;SDS011;3567;52.444;13.556;2024-02-16T00:32:50;24.40;;;16.23;;
7051;SDS011;3567;52.444;13.556;2024-02-16T00:35:15;18.38;;;13.40;;
7051;SDS011;3567;52.444;13.556;2024-02-16T00:37:44;18.23;;;13.82;;
7051;SDS011;3567;52.444;13.556;2024-02-16T00:40:10;15.70;;;13.95;;
7051;SDS011;3567;52.444;13.556;2024-02-16T00:42:36;21.40;;;14.68;;
7051;SDS011;3567;52.444;13.556;2024-02-16T00:45:02;20.65;;;15.43;;
7051;SDS011;3567;52.444;13.556;2024-02-16T00:47:28;23.25;;;15.68;;
7051;SDS011;3567;52.444;13.556;2024-02-16T00:49:54;23.20;;;17.15;;
7051;SDS011;3567;52.444;13.556;2024-02-16T00:52:20;21.67;;;17.08;;
7051;SDS011;3567;52.444;13.556;2024-02-16T00:54:45;26.05;;;17.80;;
7051;SDS011;3567;52.444;13.556;2024-02-16T00:57:12;23.25;;;17.50;;
7051;SDS011;3567;52.444;13.556;2024-02-16T00:59:39;25.20;;;18.70;;
7051;SDS011;3567;52.444;13.556;2024-02-16T01:02:05;23.77;;;17.83;;
7051;SDS011;3567;52.444;13.556;2024-02-16T01:04:30;23.38;;;17.73;;
7051;SDS011;3567;52.444;13.556;2024-02-16T01:06:55;23.70;;;18.05;;
7051;SDS011;3567;52.444;13.556;2024-02-16T01:09:21;24.67;;;18.38;;
7051;SDS011;3567;52.444;13.556;2024-02-16T01:11:46;28.85;;;20.33;;
7051;SDS011;3567;52.444;13.556;2024-02-16T01:14:12;24.98;;;18.50;;
7051;SDS011;3567;52.444;13.556;2024-02-16T01:16:39;23.42;;;19.30;;
7051;SDS011;3567;52.444;13.556;2024-02-16T01:19:04;27.65;;;19.65;;
7051;SDS011;3567;52.444;13.556;2024-02-16T01:21:31;29.08;;;20.60;;
7051;SDS011;3567;52.444;13.556;2024-02-16T01:23:56;26.25;;;21.05;;
7051;SDS011;3567;52.444;13.556;2024-02-16T01:26:24;23.50;;;18.80;;
7051;SDS011;3567;52.444;13.556;2024-02-16T01:28:50;27.45;;;20.13;;
7051;SDS011;3567;52.444;13.556;2024-02-16T01:31:15;26.52;;;20.50;;
7051;SDS011;3567;52.444;13.556;2024-02-16T01:33:40;25.80;;;20.67;;
7051;SDS011;3567;52.444;13.556;2024-02-16T01:36:06;28.88;;;22.30;;
7051;SDS011;3567;52.444;13.556;2024-02-16T01:38:31;33.40;;;21.42;;
7051;SDS011;3567;52.444;13.556;2024-02-16T01:40:56;29.05;;;20.90;;
7051;SDS011;3567;52.444;13.556;2024-02-16T01:43:22;31.08;;;21.75;;
7051;SDS011;3567;52.444;13.556;2024-02-16T01:45:47;31.40;;;22.48;;
7051;SDS011;3567;52.444;13.556;2024-02-16T01:48:14;29.52;;;22.25;;
7051;SDS011;3567;52.444;13.556;2024-02-16T01:50:42;27.83;;;22.08;;
7051;SDS011;3567;52.444;13.556;2024-02-16T01:53:08;28.42;;;21.77;;
7051;SDS011;3567;52.444;13.556;2024-02-16T01:55:35;32.28;;;22.35;;
7051;SDS011;3567;52.444;13.556;2024-02-16T01:58:00;28.83;;;23.48;;
7051;SDS011;3567;52.444;13.556;2024-02-16T02:00:26;32.45;;;24.05;;
7051;SDS011;3567;52.444;13.556;2024-02-16T02:02:51;27.98;;;23.45;;
7051;SDS011;3567;52.444;13.556;2024-02-16T02:05:17;29.10;;;24.13;;
7051;SDS011;3567;52.444;13.556;2024-02-16T02:07:42;28.13;;;22.75;;
7051;SDS011;3567;52.444;13.556;2024-02-16T02:10:08;31.67;;;23.85;;
7051;SDS011;3567;52.444;13.556;2024-02-16T02:12:37;33.72;;;24.00;;
7051;SDS011;3567;52.444;13.556;2024-02-16T02:15:03;31.25;;;22.98;;
7051;SDS011;3567;52.444;13.556;2024-02-16T02:17:29;34.58;;;24.98;;
7051;SDS011;3567;52.444;13.556;2024-02-16T02:19:55;33.10;;;24.05;;
7051;SDS011;3567;52.444;13.556;2024-02-16T02:22:20;35.80;;;24.05;;
7051;SDS011;3567;52.444;13.556;2024-02-16T02:24:47;32.75;;;23.48;;
7051;SDS011;3567;52.444;13.556;2024-02-16T02:27:14;31.30;;;23.77;;
7051;SDS011;3567;52.444;13.556;2024-02-16T02:29:40;32.92;;;24.52;;
7051;SDS011;3567;52.444;13.556;2024-02-16T02:32:06;29.52;;;24.02;;
7051;SDS011;3567;52.444;13.556;2024-02-16T02:34:32;31.75;;;23.85;;
7051;SDS011;3567;52.444;13.556;2024-02-16T02:36:57;32.10;;;24.27;;
7051;SDS011;3567;52.444;13.556;2024-02-16T02:39:23;30.55;;;23.60;;
7051;SDS011;3567;52.444;13.556;2024-02-16T02:41:48;33.05;;;22.08;;
7051;SDS011;3567;52.444;13.556;2024-02-16T02:44:14;29.55;;;24.00;;
7051;SDS011;3567;52.444;13.556;2024-02-16T02:46:39;31.73;;;23.58;;
7051;SDS011;3567;52.444;13.556;2024-02-16T02:49:05;35.70;;;23.85;;
7051;SDS011;3567;52.444;13.556;2024-02-16T02:51:30;30.23;;;23.85;;
7051;SDS011;3567;52.444;13.556;2024-02-16T02:53:55;34.65;;;23.10;;
7051;SDS011;3567;52.444;13.556;2024-02-16T02:56:21;30.38;;;24.08;;
7051;SDS011;3567;52.444;13.556;2024-02-16T02:58:46;34.08;;;24.98;;
7051;SDS011;3567;52.444;13.556;2024-02-16T03:01:12;35.83;;;23.52;;
7051;SDS011;3567;52.444;13.556;2024-02-16T03:03:39;32.28;;;22.00;;
7051;SDS011;3567;52.444;13.556;2024-02-16T03:06:06;30.92;;;23.58;;
7051;SDS011;3567;52.444;13.556;2024-02-16T03:08:32;27.92;;;22.77;;
7051;SDS011;3567;52.444;13.556;2024-02-16T03:10:57;32.55;;;22.35;;
7051;SDS011;3567;52.444;13.556;2024-02-16T03:13:25;30.50;;;23.00;;
7051;SDS011;3567;52.444;13.556;2024-02-16T03:15:51;29.13;;;22.83;;
7051;SDS011;3567;52.444;13.556;2024-02-16T03:18:17;29.83;;;23.75;;
7051;SDS011;3567;52.444;13.556;2024-02-16T03:20:43;28.35;;;22.08;;
7051;SDS011;3567;52.444;13.556;2024-02-16T03:23:11;25.77;;;20.63;;
7051;SDS011;3567;52.444;13.556;2024-02-16T03:25:36;29.10;;;21.35;;
7051;SDS011;3567;52.444;13.556;2024-02-16T03:28:01;27.48;;;22.25;;
7051;SDS011;3567;52.444;13.556;2024-02-16T03:30:27;29.10;;;20.63;;
7051;SDS011;3567;52.444;13.556;2024-02-16T03:32:52;26.95;;;20.73;;
7051;SDS011;3567;52.444;13.556;2024-02-16T03:35:18;24.67;;;19.98;;
7051;SDS011;3567;52.444;13.556;2024-02-16T03:37:44;26.42;;;20.55;;
7051;SDS011;3567;52.444;13.556;2024-02-16T03:40:10;26.83;;;20.33;;
7051;SDS011;3567;52.444;13.556;2024-02-16T03:42:37;25.27;;;19.92;;
7051;SDS011;3567;52.444;13.556;2024-02-16T03:45:03;27.50;;;19.80;;
7051;SDS011;3567;52.444;13.556;2024-02-16T03:47:29;25.27;;;20.25;;
7051;SDS011;3567;52.444;13.556;2024-02-16T03:49:54;26.75;;;20.65;;
7051;SDS011;3567;52.444;13.556;2024-02-16T03:52:20;28.05;;;19.70;;
7051;SDS011;3567;52.444;13.556;2024-02-16T03:54:45;23.73;;;19.95;;
7051;SDS011;3567;52.444;13.556;2024-02-16T03:57:13;25.70;;;19.15;;
7051;SDS011;3567;52.444;13.556;2024-02-16T03:59:42;28.42;;;21.30;;
7051;SDS011;3567;52.444;13.556;2024-02-16T04:02:08;27.65;;;20.98;;
7051;SDS011;3567;52.444;13.556;2024-02-16T04:04:34;28.05;;;20.63;;
7051;SDS011;3567;52.444;13.556;2024-02-16T04:07:00;25.92;;;20.42;;
7051;SDS011;3567;52.444;13.556;2024-02-16T04:09:25;28.00;;;19.55;;
7051;SDS011;3567;52.444;13.556;2024-02-16T04:11:51;26.13;;;19.23;;
7051;SDS011;3567;52.444;13.556;2024-02-16T04:14:16;29.42;;;20.13;;
7051;SDS011;3567;52.444;13.556;2024-02-16T04:16:42;25.00;;;19.10;;
7051;SDS011;3567;52.444;13.556;2024-02-16T04:19:08;27.65;;;18.80;;
7051;SDS011;3567;52.444;13.556;2024-02-16T04:21:34;26.50;;;19.27;;
7051;SDS011;3567;52.444;13.556;2024-02-16T04:23:59;26.52;;;19.08;;
7051;SDS011;3567;52.444;13.556;2024-02-16T04:26:24;24.70;;;19.02;;
7051;SDS011;3567;52.444;13.556;2024-02-16T04:28:50;23.20;;;18.17;;
7051;SDS011;3567;52.444;13.556;2024-02-16T04:31:15;22.17;;;18.50;;
7051;SDS011;3567;52.444;13.556;2024-02-16T04:33:40;23.13;;;17.83;;
7051;SDS011;3567;52.444;13.556;2024-02-16T04:36:06;22.52;;;17.05;;
7051;SDS011;3567;52.444;13.556;2024-02-16T04:38:32;22.65;;;17.40;;
7051;SDS011;3567;52.444;13.556;2024-02-16T04:40:58;24.90;;;17.98;;
7051;SDS011;3567;52.444;13.556;2024-02-16T04:43:23;23.40;;;17.73;;
7051;SDS011;3567;52.444;13.556;2024-02-16T04:45:49;22.92;;;17.35;;
7051;SDS011;3567;52.444;13.556;2024-02-16T04:48:14;21.35;;;16.65;;
7051;SDS011;3567;52.444;13.556;2024-02-16T04:50:41;23.60;;;18.35;;
7051;SDS011;3567;52.444;13.556;2024-02-16T04:53:06;21.05;;;16.27;;
7051;SDS011;3567;52.444;13.556;2024-02-16T04:55:32;27.17;;;18.83;;
7051;SDS011;3567;52.444;13.556;2024-02-16T04:57:57;24.05;;;17.10;;
7051;SDS011;3567;52.444;13.556;2024-02-16T05:00:23;20.90;;;15.75;;
7051;SDS011;3567;52.444;13.556;2024-02-16T05:02:50;21.77;;;16.52;;
7051;SDS011;3567;52.444;13.556;2024-02-16T05:05:16;20.08;;;15.50;;
7051;SDS011;3567;52.444;13.556;2024-02-16T05:07:42;19.02;;;14.98;;
7051;SDS011;3567;52.444;13.556;2024-02-16T05:10:08;23.77;;;15.85;;
7051;SDS011;3567;52.444;13.556;2024-02-16T05:12:34;20.40;;;15.65;;
7051;SDS011;3567;52.444;13.556;2024-02-16T05:14:59;26.98;;;19.67;;
7051;SDS011;3567;52.444;13.556;2024-02-16T05:17:25;20.70;;;15.60;;
7051;SDS011;3567;52.444;13.556;2024-02-16T05:19:51;20.00;;;15.30;;
7051;SDS011;3567;52.444;13.556;2024-02-16T05:22:19;17.55;;;13.75;;
7051;SDS011;3567;52.444;13.556;2024-02-16T05:24:44;19.85;;;14.88;;
7051;SDS011;3567;52.444;13.556;2024-02-16T05:27:10;16.88;;;14.05;;
7051;SDS011;3567;52.444;13.556;2024-02-16T05:29:35;18.63;;;14.15;;
7051;SDS011;3567;52.444;13.556;2024-02-16T05:32:01;23.10;;;14.13;;
7051;SDS011;3567;52.444;13.556;2024-02-16T05:34:26;15.07;;;13.38;;
7051;SDS011;3567;52.444;13.556;2024-02-16T05:36:57;17.08;;;13.32;;
7051;SDS011;3567;52.444;13.556;2024-02-16T05:39:22;17.60;;;14.15;;
7051;SDS011;3567;52.444;13.556;2024-02-16T05:41:56;16.45;;;13.05;;
7051;SDS011;3567;52.444;13.556;2024-02-16T05:44:21;21.00;;;14.13;;
7051;SDS011;3567;52.444;13.556;2024-02-16T05:46:47;19.55;;;12.82;;
7051;SDS011;3567;52.444;13.556;2024-02-16T05:49:13;17.73;;;13.23;;
7051;SDS011;3567;52.444;13.556;2024-02-16T05:51:40;16.13;;;13.43;;
7051;SDS011;3567;52.444;13.556;2024-02-16T05:54:07;14.95;;;13.35;;
7051;SDS011;3567;52.444;13.556;2024-02-16T05:56:33;20.77;;;15.43;;
7051;SDS011;3567;52.444;13.556;2024-02-16T05:59:02;15.27;;;12.63;;
7051;SDS011;3567;52.444;13.556;2024-02-16T06:01:28;19.85;;;14.00;;
7051;SDS011;3567;52.444;13.556;2024-02-16T06:03:54;21.20;;;13.73;;
7051;SDS011;3567;52.444;13.556;2024-02-16T06:06:19;17.35;;;13.23;;
7051;SDS011;3567;52.444;13.556;2024-02-16T06:08:45;16.95;;;13.43;;
7051;SDS011;3567;52.444;13.556;2024-02-16T06:11:10;18.15;;;13.07;;
7051;SDS011;3567;52.444;13.556;2024-02-16T06:13:35;21.42;;;14.88;;
7051;SDS011;3567;52.444;13.556;2024-02-16T06:16:01;20.13;;;13.85;;
7051;SDS011;3567;52.444;13.556;2024-02-16T06:18:29;19.15;;;14.00;;
7051;SDS011;3567;52.444;13.556;2024-02-16T06:20:55;17.60;;;13.68;;
7051;SDS011;3567;52.444;13.556;2024-02-16T06:23:20;17.75;;;14.50;;
7051;SDS011;3567;52.444;13.556;2024-02-16T06:25:45;50.63;;;35.42;;
7051;SDS011;3567;52.444;13.556;2024-02-16T06:28:11;17.60;;;13.90;;
7051;SDS011;3567;52.444;13.556;2024-02-16T06:30:36;19.60;;;14.10;;
7051;SDS011;3567;52.444;13.556;2024-02-16T06:33:02;19.90;;;14.70;;
7051;SDS011;3567;52.444;13.556;2024-02-16T06:35:28;19.83;;;14.68;;
7051;SDS011;3567;52.444;13.556;2024-02-16T06:37:54;18.83;;;15.48;;
7051;SDS011;3567;52.444;13.556;2024-02-16T06:40:20;20.85;;;15.20;;
7051;SDS011;3567;52.444;13.556;2024-02-16T06:42:46;35.72;;;21.33;;
7051;SDS011;3567;52.444;13.556;2024-02-16T06:45:11;21.20;;;17.00;;
7051;SDS011;3567;52.444;13.556;2024-02-16T06:47:37;20.92;;;15.82;;
7051;SDS011;3567;52.444;13.556;2024-02-16T06:50:02;24.30;;;15.18;;
7051;SDS011;3567;52.444;13.556;2024-02-16T06:52:27;27.27;;;20.60;;
7051;SDS011;3567;52.444;13.556;2024-02-16T06:54:53;23.65;;;16.45;;
7051;SDS011;3567;52.444;13.556;2024-02-16T06:57:18;25.13;;;16.73;;
7051;SDS011;3567;52.444;13.556;2024-02-16T06:59:45;23.08;;;15.95;;
7051;SDS011;3567;52.444;13.556;2024-02-16T07:02:11;18.40;;;14.55;;
7051;SDS011;3567;52.444;13.556;2024-02-16T07:04:36;20.90;;;14.32;;
7051;SDS011;3567;52.444;13.556;2024-02-16T07:07:04;23.35;;;14.43;;
7051;SDS011;3567;52.444;13.556;2024-02-16T07:09:31;23.17;;;14.77;;
7051;SDS011;3567;52.444;13.556;2024-02-16T07:11:56;18.85;;;14.57;;
7051;SDS011;3567;52.444;13.556;2024-02-16T07:14:23;16.63;;;13.93;;
7051;SDS011;3567;52.444;13.556;2024-02-16T07:16:49;17.45;;;14.32;;
7051;SDS011;3567;52.444;13.556;2024-02-16T07:19:15;17.88;;;13.38;;
7051;SDS011;3567;52.444;13.556;2024-02-16T07:21:40;20.48;;;15.25;;
7051;SDS011;3567;52.444;13.556;2024-02-16T07:24:06;19.52;;;13.93;;
7051;SDS011;3567;52.444;13.556;2024-02-16T07:26:31;17.77;;;12.90;;
7051;SDS011;3567;52.444;13.556;2024-02-16T07:28:56;16.05;;;13.10;;
7051;SDS011;3567;52.444;13.556;2024-02-16T07:31:22;19.02;;;12.80;;
7051;SDS011;3567;52.444;13.556;2024-02-16T07:33:47;17.42;;;13.40;;
7051;SDS011;3567;52.444;13.556;2024-02-16T07:36:13;17.38;;;13.02;;
7051;SDS011;3567;52.444;13.556;2024-02-16T07:38:39;14.90;;;12.43;;
7051;SDS011;3567;52.444;13.556;2024-02-16T07:41:04;16.23;;;12.98;;
7051;SDS011;3567;52.444;13.556;2024-02-16T07:43:30;16.90;;;12.05;;
7051;SDS011;3567;52.444;13.556;2024-02-16T07:45:56;15.02;;;12.25;;
7051;SDS011;3567;52.444;13.556;2024-02-16T07:48:22;15.82;;;12.88;;
7051;SDS011;3567;52.444;13.556;2024-02-16T07:50:48;18.60;;;13.05;;
7051;SDS011;3567;52.444;13.556;2024-02-16T07:53:15;14.15;;;11.55;;
7051;SDS011;3567;52.444;13.556;2024-02-16T07:55:41;16.40;;;11.93;;
7051;SDS011;3567;52.444;13.556;2024-02-16T07:58:06;15.30;;;12.55;;
7051;SDS011;3567;52.444;13.556;2024-02-16T08:00:32;17.70;;;12.95;;
7051;SDS011;3567;52.444;13.556;2024-02-16T08:02:57;17.52;;;14.00;;
7051;SDS011;3567;52.444;13.556;2024-02-16T08:05:24;17.25;;;11.80;;
7051;SDS011;3567;52.444;13.556;2024-02-16T08:07:50;14.43;;;11.30;;
7051;SDS011;3567;52.444;13.556;2024-02-16T08:10:18;15.02;;;11.88;;
7051;SDS011;3567;52.444;13.556;2024-02-16T08:12:47;12.63;;;11.23;;
7051;SDS011;3567;52.444;13.556;2024-02-16T08:15:12;15.70;;;10.77;;
7051;SDS011;3567;52.444;13.556;2024-02-16T08:17:38;13.70;;;10.32;;
7051;SDS011;3567;52.444;13.556;2024-02-16T08:20:04;14.45;;;9.90;;
7051;SDS011;3567;52.444;13.556;2024-02-16T08:22:31;12.13;;;10.77;;
7051;SDS011;3567;52.444;13.556;2024-02-16T08:24:58;12.50;;;11.20;;
7051;SDS011;3567;52.444;13.556;2024-02-16T08:27:24;15.30;;;10.95;;
7051;SDS011;3567;52.444;13.556;2024-02-16T08:29:50;13.38;;;10.60;;
7051;SDS011;3567;52.444;13.556;2024-02-16T08:32:16;12.60;;;10.70;;
7051;SDS011;3567;52.444;13.556;2024-02-16T08:34:43;11.50;;;10.35;;
7051;SDS011;3567;52.444;13.556;2024-02-16T08:37:08;11.98;;;10.63;;
7051;SDS011;3567;52.444;13.556;2024-02-16T08:39:34;12.45;;;10.30;;
7051;SDS011;3567;52.444;13.556;2024-02-16T08:42:03;12.70;;;10.65;;
7051;SDS011;3567;52.444;13.556;2024-02-16T08:44:28;11.77;;;9.73;;
7051;SDS011;3567;52.444;13.556;2024-02-16T08:46:54;11.57;;;9.80;;
7051;SDS011;3567;52.444;13.556;2024-02-16T08:49:19;12.05;;;9.68;;
7051;SDS011;3567;52.444;13.556;2024-02-16T08:51:45;11.75;;;9.38;;
7051;SDS011;3567;52.444;13.556;2024-02-16T08:54:12;12.70;;;10.10;;
7051;SDS011;3567;52.444;13.556;2024-02-16T08:56:37;10.80;;;9.35;;
7051;SDS011;3567;52.444;13.556;2024-02-16T08:59:04;12.35;;;9.48;;
7051;SDS011;3567;52.444;13.556;2024-02-16T09:01:34;11.63;;;9.85;;
7051;SDS011;3567;52.444;13.556;2024-02-16T09:04:00;11.40;;;9.75;;
7051;SDS011;3567;52.444;13.556;2024-02-16T09:06:25;12.05;;;10.48;;
7051;SDS011;3567;52.444;13.556;2024-02-16T09:08:52;10.77;;;9.57;;
7051;SDS011;3567;52.444;13.556;2024-02-16T09:11:17;11.73;;;9.95;;
7051;SDS011;3567;52.444;13.556;2024-02-16T09:13:43;10.20;;;9.05;;
7051;SDS011;3567;52.444;13.556;2024-02-16T09:16:08;12.05;;;9.98;;
7051;SDS011;3567;52.444;13.556;2024-02-16T09:18:34;9.80;;;8.70;;
7051;SDS011;3567;52.444;13.556;2024-02-16T09:20:59;11.93;;;9.88;;
7051;SDS011;3567;52.444;13.556;2024-02-16T09:23:25;12.13;;;9.68;;
7051;SDS011;3567;52.444;13.556;2024-02-16T09:25:51;11.32;;;9.63;;
7051;SDS011;3567;52.444;13.556;2024-02-16T09:28:17;9.10;;;8.20;;
7051;SDS011;3567;52.444;13.556;2024-02-16T09:30:45;11.20;;;9.40;;
7051;SDS011;3567;52.444;13.556;2024-02-16T09:33:11;10.80;;;9.60;;
7051;SDS011;3567;52.444;13.556;2024-02-16T09:35:36;8.88;;;7.97;;
7051;SDS011;3567;52.444;13.556;2024-02-16T09:38:01;9.27;;;8.38;;
7051;SDS011;3567;52.444;13.556;2024-02-16T09:40:27;12.35;;;8.93;;
7051;SDS011;3567;52.444;13.556;2024-02-16T09:42:53;8.30;;;7.35;;
7051;SDS011;3567;52.444;13.556;2024-02-16T09:45:19;10.23;;;7.85;;
7051;SDS011;3567;52.444;13.556;2024-02-16T09:47:47;10.85;;;8.60;;
7051;SDS011;3567;52.444;13.556;2024-02-16T09:50:14;9.40;;;8.25;;
7051;SDS011;3567;52.444;13.556;2024-02-16T09:52:40;8.43;;;7.53;;
7051;SDS011;3567;52.444;13.556;2024-02-16T09:55:07;10.15;;;7.70;;
7051;SDS011;3567;52.444;13.556;2024-02-16T09:57:36;9.77;;;8.40;;
7051;SDS011;3567;52.444;13.556;2024-02-16T10:00:02;8.05;;;7.30;;
7051;SDS011;3567;52.444;13.556;2024-02-16T10:02:38;10.13;;;8.50;;
7051;SDS011;3567;52.444;13.556;2024-02-16T10:05:17;8.05;;;7.15;;
7051;SDS011;3567;52.444;13.556;2024-02-16T10:07:44;9.73;;;7.80;;
7051;SDS011;3567;52.444;13.556;2024-02-16T10:10:26;8.90;;;7.97;;
7051;SDS011;3567;52.444;13.556;2024-02-16T10:13:04;7.93;;;7.13;;
7051;SDS011;3567;52.444;13.556;2024-02-16T10:15:31;10.13;;;9.23;;
7051;SDS011;3567;52.444;13.556;2024-02-16T10:20:25;8.80;;;7.90;;
7051;SDS011;3567;52.444;13.556;2024-02-16T10:25:30;8.77;;;5.97;;
7051;SDS011;3567;52.444;13.556;2024-02-16T10:27:56;7.63;;;6.90;;
7051;SDS011;3567;52.444;13.556;2024-02-16T10:30:23;7.28;;;6.57;;
7051;SDS011;3567;52.444;13.556;2024-02-16T10:32:55;9.13;;;6.85;;
7051;SDS011;3567;52.444;13.556;2024-02-16T10:35:22;6.78;;;6.18;;
7051;SDS011;3567;52.444;13.556;2024-02-16T10:37:49;8.05;;;7.25;;
7051;SDS011;3567;52.444;13.556;2024-02-16T10:40:15;7.07;;;6.40;;
7051;SDS011;3567;52.444;13.556;2024-02-16T10:42:45;10.48;;;8.50;;
7051;SDS011;3567;52.444;13.556;2024-02-16T10:45:11;9.00;;;8.10;;
7051;SDS011;3567;52.444;13.556;2024-02-16T10:47:38;6.78;;;6.18;;
7051;SDS011;3567;52.444;13.556;2024-02-16T10:50:04;7.68;;;6.88;;
7051;SDS011;3567;52.444;13.556;2024-02-16T10:52:30;7.15;;;6.43;;
7051;SDS011;3567;52.444;13.556;2024-02-16T10:54:56;9.70;;;6.28;;
7051;SDS011;3567;52.444;13.556;2024-02-16T10:57:24;7.43;;;6.43;;
7051;SDS011;3567;52.444;13.556;2024-02-16T10:59:52;7.40;;;6.68;;
7051;SDS011;3567;52.444;13.556;2024-02-16T11:02:19;7.20;;;6.50;;
7051;SDS011;3567;52.444;13.556;2024-02-16T11:04:45;7.85;;;6.15;;
7051;SDS011;3567;52.444;13.556;2024-02-16T11:07:13;7.30;;;6.60;;
7051;SDS011;3567;52.444;13.556;2024-02-16T11:09:41;8.73;;;7.00;;
7051;SDS011;3567;52.444;13.556;2024-02-16T11:12:07;8.27;;;6.10;;
7051;SDS011;3567;52.444;13.556;2024-02-16T11:14:36;8.02;;;6.60;;
7051;SDS011;3567;52.444;13.556;2024-02-16T11:19:40;7.00;;;5.68;;
7051;SDS011;3567;52.444;13.556;2024-02-16T11:22:09;10.20;;;6.50;;
7051;SDS011;3567;52.444;13.556;2024-02-16T11:24:36;7.18;;;6.47;;
7051;SDS011;3567;52.444;13.556;2024-02-16T11:27:07;7.18;;;6.45;;
7051;SDS011;3567;52.444;13.556;2024-02-16T11:29:37;6.55;;;5.90;;
7051;SDS011;3567;52.444;13.556;2024-02-16T11:32:04;8.63;;;7.75;;
7051;SDS011;3567;52.444;13.556;2024-02-16T11:34:30;9.38;;;6.07;;
7051;SDS011;3567;52.444;13.556;2024-02-16T11:37:00;7.38;;;6.05;;
7051;SDS011;3567;52.444;13.556;2024-02-16T11:39:27;6.05;;;5.63;;
7051;SDS011;3567;52.444;13.556;2024-02-16T11:44:33;5.88;;;5.07;;
7051;SDS011;3567;52.444;13.556;2024-02-16T11:46:59;5.55;;;5.05;;
7051;SDS011;3567;52.444;13.556;2024-02-16T11:49:28;4.90;;;4.50;;
7051;SDS011;3567;52.444;13.556;2024-02-16T11:51:54;5.20;;;4.68;;
7051;SDS011;3567;52.444;13.556;2024-02-16T11:54:20;6.13;;;4.80;;
7051;SDS011;3567;52.444;13.556;2024-02-16T11:56:46;4.93;;;3.97;;
7051;SDS011;3567;52.444;13.556;2024-02-16T11:59:15;7.25;;;3.80;;
7051;SDS011;3567;52.444;13.556;2024-02-16T12:04:29;6.97;;;4.22;;
7051;SDS011;3567;52.444;13.556;2024-02-16T12:06:59;4.13;;;3.70;;
7051;SDS011;3567;52.444;13.556;2024-02-16T12:09:25;3.70;;;3.40;;
7051;SDS011;3567;52.444;13.556;2024-02-16T12:11:54;6.03;;;4.03;;
7051;SDS011;3567;52.444;13.556;2024-02-16T12:14:23;5.63;;;3.65;;
7051;SDS011;3567;52.444;13.556;2024-02-16T12:16:55;5.40;;;3.80;;
7051;SDS011;3567;52.444;13.556;2024-02-16T12:19:21;2.55;;;2.42;;
7051;SDS011;3567;52.444;13.556;2024-02-16T12:21:54;3.70;;;3.40;;
7051;SDS011;3567;52.444;13.556;2024-02-16T12:24:22;4.30;;;2.58;;
7051;SDS011;3567;52.444;13.556;2024-02-16T12:26:48;3.55;;;2.83;;
7051;SDS011;3567;52.444;13.556;2024-02-16T12:29:13;3.25;;;3.05;;
7051;SDS011;3567;52.444;13.556;2024-02-16T12:31:39;2.90;;;2.63;;
7051;SDS011;3567;52.444;13.556;2024-02-16T12:34:06;2.60;;;2.40;;
7051;SDS011;3567;52.444;13.556;2024-02-16T12:36:32;7.38;;;2.85;;
7051;SDS011;3567;52.444;13.556;2024-02-16T12:38:59;3.30;;;2.92;;
7051;SDS011;3567;52.444;13.556;2024-02-16T12:41:25;3.45;;;3.15;;
7051;SDS011;3567;52.444;13.556;2024-02-16T12:43:50;10.43;;;4.07;;
7051;SDS011;3567;52.444;13.556;2024-02-16T12:46:16;3.78;;;2.95;;
7051;SDS011;3567;52.444;13.556;2024-02-16T12:48:41;6.60;;;2.97;;
7051;SDS011;3567;52.444;13.556;2024-02-16T12:51:06;5.72;;;3.13;;
7051;SDS011;3567;52.444;13.556;2024-02-16T12:53:32;4.20;;;3.60;;
7051;SDS011;3567;52.444;13.556;2024-02-16T12:56:05;4.40;;;3.08;;
7051;SDS011;3567;52.444;13.556;2024-02-16T12:58:34;7.47;;;3.20;;
7051;SDS011;3567;52.444;13.556;2024-02-16T13:01:03;3.78;;;3.47;;
7051;SDS011;3567;52.444;13.556;2024-02-16T13:03:35;3.38;;;3.08;;
7051;SDS011;3567;52.444;13.556;2024-02-16T13:06:02;5.35;;;3.38;;
7051;SDS011;3567;52.444;13.556;2024-02-16T13:08:28;4.93;;;3.45;;
7051;SDS011;3567;52.444;13.556;2024-02-16T13:10:54;3.40;;;3.10;;
7051;SDS011;3567;52.444;13.556;2024-02-16T13:13:20;3.60;;;3.30;;
7051;SDS011;3567;52.444;13.556;2024-02-16T13:15:46;5.20;;;3.30;;
7051;SDS011;3567;52.444;13.556;2024-02-16T13:18:12;3.15;;;2.90;;
7051;SDS011;3567;52.444;13.556;2024-02-16T13:20:38;7.63;;;3.22;;
7051;SDS011;3567;52.444;13.556;2024-02-16T13:23:03;4.18;;;3.17;;
7051;SDS011;3567;52.444;13.556;2024-02-16T13:25:29;3.35;;;3.10;;
7051;SDS011;3567;52.444;13.556;2024-02-16T13:27:54;4.45;;;3.42;;
7051;SDS011;3567;52.444;13.556;2024-02-16T13:30:19;3.53;;;3.22;;
7051;SDS011;3567;52.444;13.556;2024-02-16T13:32:45;3.53;;;3.08;;
7051;SDS011;3567;52.444;13.556;2024-02-16T13:35:11;3.90;;;3.25;;
7051;SDS011;3567;52.444;13.556;2024-02-16T13:37:38;2.90;;;2.67;;
7051;SDS011;3567;52.444;13.556;2024-02-16T13:40:05;3.40;;;3.10;;
7051;SDS011;3567;52.444;13.556;2024-02-16T13:42:32;3.55;;;3.25;;
7051;SDS011;3567;52.444;13.556;2024-02-16T13:44:58;6.00;;;3.05;;
7051;SDS011;3567;52.444;13.556;2024-02-16T13:47:23;5.45;;;3.83;;
7051;SDS011;3567;52.444;13.556;2024-02-16T13:49:49;19.45;;;12.75;;
7051;SDS011;3567;52.444;13.556;2024-02-16T13:52:15;8.07;;;7.28;;
7051;SDS011;3567;52.444;13.556;2024-02-16T13:54:41;7.15;;;3.88;;
7051;SDS011;3567;52.444;13.556;2024-02-16T13:57:06;5.18;;;4.05;;
7051;SDS011;3567;52.444;13.556;2024-02-16T13:59:31;6.65;;;3.97;;
7051;SDS011;3567;52.444;13.556;2024-02-16T14:01:58;5.53;;;3.30;;
7051;SDS011;3567;52.444;13.556;2024-02-16T14:04:24;5.82;;;3.78;;
7051;SDS011;3567;52.444;13.556;2024-02-16T14:06:51;5.35;;;3.50;;
7051;SDS011;3567;52.444;13.556;2024-02-16T14:09:17;3.67;;;3.15;;
7051;SDS011;3567;52.444;13.556;2024-02-16T14:11:44;7.28;;;3.15;;
7051;SDS011;3567;52.444;13.556;2024-02-16T14:14:10;6.03;;;3.50;;
7051;SDS011;3567;52.444;13.556;2024-02-16T14:16:36;5.65;;;3.70;;
7051;SDS011;3567;52.444;13.556;2024-02-16T14:19:02;3.28;;;2.92;;
7051;SDS011;3567;52.444;13.556;2024-02-16T14:21:27;6.15;;;5.40;;
7051;SDS011;3567;52.444;13.556;2024-02-16T14:23:53;4.65;;;2.65;;
7051;SDS011;3567;52.444;13.556;2024-02-16T14:26:18;3.80;;;3.35;;
7051;SDS011;3567;52.444;13.556;2024-02-16T14:28:44;6.85;;;3.60;;
7051;SDS011;3567;52.444;13.556;2024-02-16T14:31:10;4.03;;;2.83;;
7051;SDS011;3567;52.444;13.556;2024-02-16T14:33:38;3.08;;;2.65;;
7051;SDS011;3567;52.444;13.556;2024-02-16T14:36:03;3.67;;;2.67;;
7051;SDS011;3567;52.444;13.556;2024-02-16T14:38:29;4.85;;;2.90;;
7051;SDS011;3567;52.444;13.556;2024-02-16T14:40:55;3.58;;;2.80;;
7051;SDS011;3567;52.444;13.556;2024-02-16T14:43:21;6.25;;;2.72;;
7051;SDS011;3567;52.444;13.556;2024-02-16T14:45:46;3.28;;;2.95;;
7051;SDS011;3567;52.444;13.556;2024-02-16T14:48:12;3.45;;;3.20;;
7051;SDS011;3567;52.444;13.556;2024-02-16T14:50:37;2.72;;;2.50;;